メインページ
METAR-TAF:

METAR-TAF

空港 :

富山空港

富山, 日本

緯度: 36-39N, 経度: 137-11E, 海抜: 24m

現時点の気象観測

当レポートは22分前の07:00(UTC)に作成
の風 6kt、北/北西から北東の間で変化する
気温 28°C
湿度 70%
気圧 1009 hPa
視程10km以上
高度3000ftの雲はほとんどない
高度12000ftの雲は散在している
近辺でにわか雨

METAR: RJNT 200700Z 01006KT 340V040 9999 VCSH FEW030 SCT120 28/22 Q1009

時間: 16:22 (07:22 UTC)

予報

当レポートは2時間17分前の05:05(UTC)に作成
予報は20日の 06時(UTC)から 21日の 12時(UTC)まで有効
北/北西の風 6kt
視程10km以上
高度3000ftの雲はほとんどない
高度8000ftの雲は散在している
20日の 09時(UTC)から 20日の 11時(UTC)まで徐々に
南/南西の風 6kt
21日の 03時(UTC)から 21日の 06時(UTC)まで徐々に
北/北西の風 6kt
21日の 09時(UTC)から 21日の 12時(UTC)まで徐々に
の風 4kt

TAF: RJNT 200505Z 2006/2112 34006KT 9999 FEW030 SCT080 BECMG 2009/2011 20006KT BECMG 2103/2106 33006KT BECMG 2109/2112 18004KT

4,000以上の空港の気象観測と天気予報(METAR報とTAF報)

利用可能な観測所は地図上に黄色い丸と赤い丸で示す。

丸の上にカーソルを重ねると観測所名を参照できる。

次にクリックすると気象観測と天気予報を参照できる。

マップの切り替え:黒色「×」印の緑ボタンをクリックして拡大、「-」印の緑ボタンをクリックして縮小、緑色の三角印をクリックして隣りの地図に切り替え


METAR-TAF: